Time;durP1;ratioP1;P1;durP2;ratioP2;P2;SDS_P1;SDS_P2;PMS_P1;PMS_P2;Temp;Humidity;BMP_temperature;BMP_pressure;BME280_temperature;BME280_humidity;BME280_pressure;Samples;Min_cycle;Max_cycle;Signal;HPM_P1;HPM_P2
2021/10/10 00:00:52;;;;;;;2.28;1.92;;;20.50;49.70;;;24.50;33.00;102775.22;5113398;28;20071;-9
2021/10/10 00:03:18;;;;;;;2.22;2.03;;;20.40;49.70;;;24.50;32.94;102781.41;5113381;28;20377;-9
2021/10/10 00:05:43;;;;;;;2.10;1.90;;;20.40;49.80;;;24.51;32.97;102779.63;5113577;28;20044;-9
2021/10/10 00:08:09;;;;;;;3.15;2.40;;;20.40;49.80;;;24.47;33.05;102773.53;5113321;28;20418;-9
2021/10/10 00:10:35;;;;;;;3.08;2.22;;;20.40;49.90;;;24.49;33.12;102778.81;5113520;28;20043;-9
2021/10/10 00:13:02;;;;;;;2.15;1.95;;;20.30;49.90;;;24.48;33.09;102783.31;5113769;28;20040;-9
2021/10/10 00:15:28;;;;;;;2.42;2.22;;;20.40;49.90;;;24.48;33.12;102772.63;5095103;28;20051;-9
2021/10/10 00:17:55;;;;;;;2.50;2.30;;;20.40;49.90;;;24.45;33.23;102779.91;5095013;28;20498;-9
2021/10/10 00:20:21;;;;;;;3.63;2.20;;;20.40;50.00;;;24.47;33.01;102775.34;5113555;28;20092;-8
2021/10/10 00:22:47;;;;;;;2.30;2.08;;;20.30;49.90;;;24.47;32.97;102775.34;5113183;28;20044;-9
2021/10/10 00:25:13;;;;;;;2.83;2.17;;;20.40;50.00;;;24.46;33.08;102765.59;5113020;28;20047;-9
2021/10/10 00:27:39;;;;;;;2.45;2.22;;;20.40;49.90;;;24.48;32.89;102766.41;5113064;28;20040;-9
2021/10/10 00:30:09;;;;;;;2.45;2.15;;;20.40;49.90;;;24.47;33.11;102772.69;5113072;28;20082;-9
2021/10/10 00:32:36;;;;;;;2.42;2.13;;;20.30;49.90;;;24.48;33.07;102782.44;5113028;28;20079;-9
2021/10/10 00:35:04;;;;;;;2.20;2.00;;;20.30;49.90;;;24.46;33.11;102768.25;5112897;28;20048;-9
2021/10/10 00:37:30;;;;;;;2.47;2.10;;;20.30;49.90;;;24.45;32.92;102769.22;5112889;28;20047;-8
2021/10/10 00:39:55;;;;;;;2.53;1.95;;;20.30;49.90;;;24.45;33.07;102770.06;5112842;28;20044;-9
2021/10/10 00:42:21;;;;;;;2.35;2.08;;;20.30;50.40;;;24.49;33.06;102773.47;5092379;28;20059;-9
2021/10/10 00:44:48;;;;;;;2.30;2.10;;;20.40;49.80;;;24.45;33.09;102770.06;5112867;28;20127;-9
2021/10/10 00:47:15;;;;;;;2.03;1.83;;;20.40;49.80;;;24.47;33.08;102767.34;5112923;28;20461;-9
2021/10/10 00:49:41;;;;;;;2.20;2.00;;;20.40;49.60;;;24.47;33.05;102761.97;5112694;28;20051;-9
2021/10/10 00:52:12;;;;;;;2.15;1.95;;;20.50;49.60;;;24.48;32.96;102756.56;5096030;28;20047;-9
2021/10/10 00:54:40;;;;;;;2.58;2.22;;;20.50;49.40;;;24.50;33.12;102762.69;5097923;28;20567;-9
2021/10/10 00:57:08;;;;;;;2.67;2.03;;;20.60;49.50;;;24.49;33.01;102755.63;5116323;28;20048;-9
2021/10/10 00:59:37;;;;;;;2.50;2.30;;;20.60;49.40;;;24.51;33.03;102758.25;5116261;28;20052;-9
2021/10/10 01:02:02;;;;;;;2.20;2.00;;;20.60;49.40;;;24.53;32.90;102761.72;5116575;28;20130;-9
2021/10/10 01:04:28;;;;;;;3.10;2.05;;;20.60;49.40;;;24.52;32.82;102754.63;5116324;28;20058;-9
2021/10/10 01:06:54;;;;;;;2.65;2.35;;;20.60;49.30;;;24.52;32.92;102749.25;5116275;28;20484;-9
2021/10/10 01:09:21;;;;;;;2.15;1.95;;;20.60;49.30;;;24.51;33.04;102742.19;5116794;28;20108;-9
2021/10/10 01:11:46;;;;;;;2.10;1.90;;;20.60;49.30;;;24.55;32.84;102750.00;5116120;28;20054;-9
2021/10/10 01:14:13;;;;;;;2.00;1.83;;;20.60;49.30;;;24.53;32.81;102746.53;5116060;28;20051;-9
2021/10/10 01:16:39;;;;;;;2.33;2.13;;;20.60;49.30;;;24.53;32.98;102748.34;5080916;28;20492;-9
2021/10/10 01:19:07;;;;;;;2.28;2.08;;;20.60;49.20;;;24.54;32.84;102750.94;5115893;28;20039;-9
2021/10/10 01:21:33;;;;;;;2.97;2.33;;;20.60;49.20;;;24.53;32.91;102741.16;5116047;28;20051;-9
2021/10/10 01:23:58;;;;;;;2.40;2.17;;;20.60;49.20;;;24.51;32.76;102743.06;5116463;28;20915;-9
2021/10/10 01:26:24;;;;;;;2.67;2.03;;;20.60;49.10;;;24.55;32.86;102746.47;5116124;28;20395;-9
2021/10/10 01:28:50;;;;;;;2.40;2.03;;;20.60;49.10;;;24.54;32.70;102742.03;5115831;28;20101;-9
2021/10/10 01:31:16;;;;;;;2.88;2.15;;;20.60;49.20;;;24.52;32.88;102735.91;5115863;28;20040;-8
2021/10/10 01:33:45;;;;;;;1.80;1.70;;;20.60;49.30;;;24.54;32.93;102748.25;5115773;28;20133;-9
2021/10/10 01:36:12;;;;;;;2.78;2.28;;;20.60;49.30;;;24.56;32.94;102740.19;5116097;28;20055;-9
2021/10/10 01:38:40;;;;;;;2.47;2.28;;;20.60;49.30;;;24.53;32.77;102737.63;5115971;28;20058;-9
2021/10/10 01:41:07;;;;;;;2.92;2.28;;;20.50;49.40;;;24.51;32.82;102736.84;5115716;28;20065;-9
2021/10/10 01:43:33;;;;;;;2.17;1.98;;;20.50;49.40;;;24.53;32.74;102740.31;5115972;28;20054;-9
2021/10/10 01:45:59;;;;;;;2.42;2.22;;;20.50;49.40;;;24.54;32.88;102740.25;5097324;28;20044;-9
2021/10/10 01:48:26;;;;;;;2.22;2.03;;;20.40;49.50;;;24.49;33.03;102728.00;5115493;28;20101;-9
2021/10/10 01:50:51;;;;;;;2.65;2.17;;;20.40;49.60;;;24.51;32.78;102740.38;5115773;28;20035;-9
2021/10/10 01:53:17;;;;;;;2.45;2.10;;;20.40;49.50;;;24.50;33.05;102733.28;5097370;28;20182;-9
2021/10/10 01:55:44;;;;;;;2.28;2.05;;;20.50;49.50;;;24.51;33.02;102734.19;5115349;28;20433;-9
2021/10/10 01:58:11;;;;;;;2.60;2.40;;;20.40;49.60;;;24.50;32.82;102730.63;5115251;28;20104;-9
2021/10/10 02:00:37;;;;;;;3.53;2.40;;;20.40;49.70;;;24.47;32.79;102730.75;5097323;28;20368;-9
2021/10/10 02:03:04;;;;;;;2.10;1.90;;;20.40;49.60;;;24.49;32.78;102730.69;5115079;28;20043;-9
2021/10/10 02:05:30;;;;;;;2.25;2.03;;;20.50;49.50;;;24.50;33.01;102735.97;5115364;28;20044;-9
2021/10/10 02:07:56;;;;;;;2.80;2.00;;;20.50;49.50;;;24.51;32.81;102729.69;5115546;28;20116;-9
2021/10/10 02:10:22;;;;;;;2.63;2.42;;;20.50;49.30;;;24.51;32.79;102727.00;5115235;28;20380;-9
2021/10/10 02:12:48;;;;;;;2.72;2.33;;;20.50;49.30;;;24.52;32.84;102726.06;5115223;28;20422;-9
2021/10/10 02:15:15;;;;;;;2.67;2.40;;;20.50;49.30;;;24.51;32.97;102720.81;5114917;28;20051;-9
2021/10/10 02:17:43;;;;;;;2.42;1.98;;;20.50;49.30;;;24.48;32.77;102719.13;5114896;28;20043;-9
2021/10/10 02:20:11;;;;;;;2.47;2.28;;;20.50;49.20;;;24.52;32.89;102726.06;5115074;28;20097;-9
2021/10/10 02:22:37;;;;;;;2.47;2.15;;;20.50;49.30;;;24.50;32.94;102722.59;5114778;28;20139;-9
2021/10/10 02:25:05;;;;;;;2.45;2.10;;;20.50;49.30;;;24.52;33.04;102726.06;5115262;28;20051;-10
2021/10/10 02:27:30;;;;;;;2.33;2.10;;;20.50;49.30;;;24.53;32.77;102722.44;5112848;28;20050;-8
2021/10/10 02:29:56;;;;;;;2.20;1.85;;;20.60;49.20;;;24.51;32.80;102716.31;5114780;28;20051;-9
2021/10/10 02:32:22;;;;;;;2.42;2.05;;;20.60;49.20;;;24.54;32.74;102728.66;5115111;28;20051;-9
2021/10/10 02:34:48;;;;;;;2.33;2.13;;;20.60;49.20;;;24.55;32.73;102722.41;5114972;28;20066;-9
2021/10/10 02:37:14;;;;;;;2.17;1.90;;;20.60;49.60;;;24.55;32.97;102722.41;5115058;28;20058;-9
2021/10/10 02:39:39;;;;;;;2.25;2.05;;;20.60;49.10;;;24.51;32.90;102704.75;5115157;28;20055;-9
2021/10/10 02:42:06;;;;;;;2.53;2.33;;;20.60;49.10;;;24.54;32.88;102720.63;5096488;28;20451;-9
2021/10/10 02:44:35;;;;;;;2.30;2.10;;;20.60;49.20;;;24.54;32.92;102705.47;5096374;28;20597;-9
2021/10/10 02:47:01;;;;;;;2.25;2.05;;;20.60;49.20;;;24.53;32.68;102703.72;5114756;28;20035;-9
2021/10/10 02:49:27;;;;;;;2.10;1.90;;;20.60;49.20;;;24.54;32.75;102707.25;5114546;28;20058;-9
2021/10/10 02:51:54;;;;;;;2.20;2.00;;;20.60;49.10;;;24.54;32.82;102704.59;5114569;28;20059;-9
2021/10/10 02:54:20;;;;;;;2.40;2.20;;;20.60;49.20;;;24.52;32.70;102693.97;5114487;28;20043;-9
2021/10/10 02:56:45;;;;;;;2.50;2.25;;;20.60;49.20;;;24.53;32.62;102690.34;5114463;28;20122;-9
2021/10/10 02:59:11;;;;;;;2.45;2.13;;;20.50;49.20;;;24.54;32.73;102692.09;5114673;28;20047;-9
2021/10/10 03:01:37;;;;;;;2.90;2.15;;;20.50;49.20;;;24.53;32.83;102693.03;5114438;28;20104;-9
2021/10/10 03:04:03;;;;;;;2.63;2.35;;;20.50;49.20;;;24.53;32.80;102695.72;5096433;28;20062;-9
2021/10/10 03:06:28;;;;;;;2.88;2.55;;;20.60;49.20;;;24.55;32.79;102704.56;5114233;28;20134;-9
2021/10/10 03:08:54;;;;;;;2.85;2.20;;;20.50;49.20;;;24.55;32.94;102701.88;5114802;28;20058;-9
2021/10/10 03:11:20;;;;;;;2.22;2.03;;;20.50;49.20;;;24.53;32.85;102694.84;5114339;28;20055;-8
2021/10/10 03:13:46;;;;;;;2.60;2.20;;;20.60;49.10;;;24.52;32.80;102688.63;5114524;28;20050;-8
2021/10/10 03:16:12;;;;;;;2.38;2.10;;;20.60;49.20;;;24.54;32.78;102689.44;5113468;28;20044;-9
2021/10/10 03:18:38;;;;;;;2.35;2.15;;;20.60;49.10;;;24.53;32.68;102690.34;5113758;28;20526;-9
2021/10/10 03:21:04;;;;;;;4.22;2.33;;;20.60;49.10;;;24.53;32.72;102689.50;5114366;28;20472;-9
2021/10/10 03:23:30;;;;;;;1.90;1.80;;;20.50;49.10;;;24.52;32.97;102683.25;5114085;28;20394;-9
2021/10/10 03:25:56;;;;;;;2.80;2.35;;;20.60;49.10;;;24.54;32.88;102688.53;5114322;28;20043;-9
2021/10/10 03:28:21;;;;;;;2.15;1.95;;;20.60;49.00;;;24.53;32.79;102687.69;5114003;28;20415;-8
2021/10/10 03:30:47;;;;;;;2.35;2.15;;;20.60;49.00;;;24.52;32.70;102683.25;5111805;28;20373;-9
2021/10/10 03:33:13;;;;;;;2.80;2.40;;;20.60;49.60;;;24.51;32.60;102673.53;5114014;28;20059;-9
2021/10/10 03:35:39;;;;;;;3.10;2.60;;;20.60;49.10;;;24.54;32.83;102677.84;5113887;28;20058;-9
2021/10/10 03:38:04;;;;;;;2.45;2.15;;;20.60;49.00;;;24.53;32.67;102682.34;5113869;28;20043;-9
2021/10/10 03:40:31;;;;;;;2.35;2.15;;;20.60;49.10;;;24.54;32.69;102678.72;5113744;28;20407;-9
2021/10/10 03:42:57;;;;;;;2.30;2.10;;;20.60;49.10;;;24.51;32.63;102672.66;5113750;28;20051;-9
2021/10/10 03:45:24;;;;;;;2.67;2.20;;;20.60;49.10;;;24.52;32.68;102669.03;5113828;28;20054;-9
2021/10/10 03:47:51;;;;;;;2.90;2.65;;;20.60;49.00;;;24.53;32.68;102671.63;5114300;28;20051;-9
2021/10/10 03:50:18;;;;;;;2.38;2.17;;;20.60;49.00;;;24.53;32.69;102671.63;5113537;28;20051;-9
2021/10/10 03:52:45;;;;;;;2.38;2.10;;;20.60;49.10;;;24.51;32.62;102667.31;5095334;28;20385;-9
2021/10/10 03:57:44;;;;;;;2.40;2.20;;;20.50;49.20;;;24.51;32.88;102660.16;5113637;28;20048;-9
2021/10/10 04:00:12;;;;;;;2.28;2.08;;;20.40;49.20;;;24.50;32.79;102655.75;5113418;28;20044;-9
2021/10/10 04:02:43;;;;;;;2.88;2.30;;;20.50;49.20;;;24.52;32.65;102653.84;5113897;28;20135;-9
2021/10/10 04:05:35;;;;;;;3.70;2.10;;;20.50;49.10;;;24.52;32.86;102658.34;5095337;28;20048;-9
2021/10/10 04:08:01;;;;;;;2.90;2.28;;;20.50;49.10;;;24.54;32.83;102656.44;5113275;28;20548;-8
2021/10/10 04:10:28;;;;;;;2.05;1.88;;;20.50;49.10;;;24.51;32.63;102657.50;5113373;28;20138;-8
2021/10/10 04:12:54;;;;;;;2.42;2.15;;;20.50;49.00;;;24.54;32.68;102651.09;5095022;28;20051;-9
2021/10/10 04:15:20;;;;;;;2.38;2.15;;;20.60;49.00;;;24.53;32.80;102650.25;5113537;28;20388;-9
2021/10/10 04:17:47;;;;;;;2.20;2.00;;;20.60;49.00;;;24.50;32.64;102637.03;5113521;28;20043;-9
2021/10/10 04:20:16;;;;;;;2.40;2.20;;;20.60;49.00;;;24.53;32.61;102638.69;5113244;28;20551;-9
2021/10/10 04:22:45;;;;;;;3.15;2.45;;;20.60;49.00;;;24.51;32.88;102636.09;5113420;28;20057;-9
2021/10/10 04:25:12;;;;;;;2.72;2.30;;;20.60;49.00;;;24.53;32.78;102636.03;5113547;28;20047;-9
2021/10/10 04:27:38;;;;;;;2.58;2.22;;;20.60;49.00;;;24.53;32.61;102630.66;5113147;28;20051;-9
2021/10/10 04:30:08;;;;;;;3.13;2.33;;;20.60;49.00;;;24.51;32.55;102641.44;5113096;28;20052;-9
2021/10/10 04:32:34;;;;;;;2.40;2.20;;;20.60;49.00;;;24.54;32.71;102641.28;5113230;28;20055;-9
2021/10/10 04:35:00;;;;;;;2.83;2.30;;;20.60;49.00;;;24.53;32.57;102630.66;5113310;28;20607;-9
2021/10/10 04:37:26;;;;;;;2.83;2.53;;;20.50;49.00;;;24.54;32.63;102627.03;5112906;28;21050;-9
2021/10/10 04:39:52;;;;;;;2.40;2.20;;;20.50;49.00;;;24.54;32.57;102627.03;5112835;28;20060;-9
2021/10/10 04:42:18;;;;;;;2.47;2.28;;;20.50;49.10;;;24.52;32.51;102628.94;5112889;28;20048;-9
2021/10/10 04:44:44;;;;;;;2.25;2.03;;;20.50;49.10;;;24.53;32.89;102628.00;5112831;28;20606;-9
2021/10/10 04:47:10;;;;;;;2.63;2.30;;;20.50;49.10;;;24.51;32.72;102619.19;5077401;28;20463;-9
2021/10/10 04:49:35;;;;;;;2.50;2.30;;;20.50;49.10;;;24.52;32.83;102612.88;5112748;28;20048;-9
2021/10/10 04:52:02;;;;;;;2.40;2.20;;;20.50;49.00;;;24.52;32.78;102619.09;5112861;28;20402;-9
2021/10/10 04:54:29;;;;;;;1.73;1.63;;;20.50;49.00;;;24.54;32.55;102617.22;5112767;28;20494;-9
2021/10/10 04:56:56;;;;;;;2.75;2.35;;;20.60;49.00;;;24.55;32.69;102612.75;5113130;28;20051;-8
2021/10/10 04:59:21;;;;;;;2.40;2.20;;;20.50;48.90;;;24.53;32.66;102610.13;5112693;28;20043;-8
2021/10/10 05:01:47;;;;;;;2.50;2.30;;;20.50;49.00;;;24.52;32.70;102603.03;5113266;28;20048;-9
2021/10/10 05:04:13;;;;;;;2.00;1.90;;;20.50;49.00;;;24.53;32.66;102599.44;5112963;28;20056;-9
2021/10/10 05:06:39;;;;;;;2.58;2.20;;;20.50;49.00;;;24.52;32.53;102605.72;5112940;28;20051;-9
2021/10/10 05:09:04;;;;;;;2.60;2.40;;;20.50;48.90;;;24.54;32.60;102606.53;5113094;28;20035;-9
2021/10/10 05:11:30;;;;;;;3.30;2.42;;;20.50;48.90;;;24.55;32.50;102600.25;5112614;28;20039;-9
2021/10/10 05:13:56;;;;;;;2.80;2.33;;;20.50;48.90;;;24.54;32.51;102598.50;5112511;28;20434;-9
2021/10/10 05:16:21;;;;;;;2.33;2.10;;;20.60;49.00;;;24.52;32.71;102589.66;5112446;28;20047;-9
2021/10/10 05:18:47;;;;;;;2.28;2.08;;;20.50;48.90;;;24.53;32.78;102596.75;5112679;28;20092;-9
2021/10/10 05:21:13;;;;;;;2.50;2.30;;;20.50;48.90;;;24.54;32.65;102593.16;5112233;28;20054;-9
2021/10/10 05:23:39;;;;;;;3.00;2.33;;;20.60;48.90;;;24.52;32.49;102584.31;5112632;28;20480;-9
2021/10/10 05:26:06;;;;;;;3.03;2.50;;;20.60;48.80;;;24.54;32.76;102582.47;5112428;28;20437;-9
2021/10/10 05:28:32;;;;;;;2.70;2.30;;;20.60;48.90;;;24.53;32.73;102575.38;5112392;28;20435;-9
2021/10/10 05:30:58;;;;;;;2.67;2.47;;;20.60;48.80;;;24.53;32.54;102571.84;5112740;28;20075;-9
2021/10/10 05:33:25;;;;;;;2.45;2.08;;;20.60;48.90;;;24.52;32.62;102572.78;5112119;28;20050;-9
2021/10/10 05:35:50;;;;;;;3.22;2.75;;;20.50;48.90;;;24.51;32.70;102574.59;5112291;28;20048;-9
2021/10/10 05:38:16;;;;;;;2.60;2.40;;;20.60;48.90;;;24.54;32.45;102579.78;5113722;28;20395;-9
2021/10/10 05:40:42;;;;;;;2.67;2.47;;;20.60;48.90;;;24.52;32.54;102576.31;5115653;28;20047;-9
2021/10/10 05:43:08;;;;;;;2.78;2.50;;;20.60;48.90;;;24.53;32.72;102583.38;5115618;28;20449;-9
2021/10/10 05:45:34;;;;;;;2.45;2.20;;;20.50;48.80;;;24.54;32.41;102582.47;5116226;28;20061;-9
2021/10/10 05:47:59;;;;;;;2.30;2.10;;;20.60;48.90;;;24.56;32.65;102575.25;5115889;28;20044;-9
2021/10/10 05:50:25;;;;;;;2.33;2.13;;;20.60;48.90;;;24.57;32.44;102581.47;5113434;28;20380;-9
2021/10/10 05:52:51;;;;;;;2.30;2.10;;;20.60;48.90;;;24.54;32.70;102579.78;5115500;28;20051;-9
2021/10/10 05:55:21;;;;;;;2.25;2.05;;;20.50;48.80;;;24.59;32.65;102576.88;5115472;28;20055;-9
2021/10/10 05:57:49;;;;;;;2.63;2.40;;;20.70;48.70;;;24.58;32.74;102581.38;5115930;28;20463;-9
2021/10/10 06:00:18;;;;;;;2.30;2.10;;;20.70;48.60;;;24.60;32.57;102586.66;5115730;28;20047;-9
2021/10/10 06:02:46;;;;;;;3.10;2.45;;;20.60;48.70;;;24.61;32.54;102588.41;5115341;28;20043;-9
2021/10/10 06:05:15;;;;;;;2.50;2.30;;;20.60;48.80;;;24.62;32.58;102576.75;5115309;28;20109;-9
2021/10/10 06:07:43;;;;;;;2.85;2.45;;;20.60;48.80;;;24.64;32.71;102571.31;5115071;28;20040;-10
2021/10/10 06:10:10;;;;;;;2.75;2.42;;;20.70;48.60;;;24.70;32.40;102574.53;5115140;28;20059;-9
2021/10/10 06:12:38;;;;;;;2.90;2.60;;;20.80;48.50;;;24.76;32.46;102586.75;5115214;28;20050;-9
2021/10/10 06:15:07;;;;;;;2.47;2.17;;;20.90;48.10;;;24.78;32.51;102575.03;5115078;28;20552;-9
2021/10/10 06:17:35;;;;;;;2.28;2.08;;;21.00;47.90;;;24.84;32.50;102572.97;5115143;28;20055;-9
2021/10/10 06:20:03;;;;;;;3.90;2.38;;;21.00;47.90;;;24.90;32.34;102578.00;5114842;28;20044;-8
2021/10/10 06:22:29;;;;;;;2.10;2.00;;;21.10;47.60;;;24.92;32.24;102568.94;5115261;28;20446;-9
2021/10/10 06:24:55;;;;;;;2.55;1.92;;;21.20;47.30;;;25.00;32.14;102570.38;5115270;28;20111;-9
2021/10/10 06:27:21;;;;;;;2.33;2.13;;;21.30;47.10;;;25.02;32.15;102568.47;5115461;28;20421;-9
2021/10/10 06:29:47;;;;;;;2.40;2.10;;;21.40;47.00;;;25.07;32.20;102566.44;5114922;28;20500;-9
2021/10/10 06:32:14;;;;;;;2.97;2.30;;;21.40;46.80;;;25.12;32.16;102569.72;5114920;28;20553;-9
2021/10/10 06:34:40;;;;;;;2.28;2.08;;;21.50;46.80;;;25.14;31.92;102565.16;5114798;28;20108;-9
2021/10/10 06:37:06;;;;;;;2.65;2.28;;;21.50;46.60;;;25.21;31.92;102563.00;5114845;28;20039;-9
2021/10/10 06:39:34;;;;;;;2.72;2.30;;;21.60;46.60;;;25.25;31.85;102565.44;5114585;28;20047;-9
2021/10/10 06:42:01;;;;;;;2.47;2.25;;;21.60;46.60;;;25.28;31.68;102565.31;5112994;28;20082;-9
2021/10/10 06:44:29;;;;;;;2.83;2.60;;;21.60;46.50;;;25.30;31.75;102557.22;5114781;28;20056;-9
2021/10/10 06:46:54;;;;;;;2.50;2.30;;;21.70;46.30;;;25.39;31.62;102570.09;5114634;28;20081;-9
2021/10/10 06:49:20;;;;;;;2.47;2.22;;;21.70;46.20;;;25.43;31.66;102573.50;5113385;28;20056;-9
2021/10/10 06:51:46;;;;;;;2.05;1.85;;;21.80;46.20;;;25.47;31.63;102575.03;5114749;28;20055;-8
2021/10/10 06:54:11;;;;;;;2.53;2.33;;;21.80;46.10;;;25.49;31.66;102571.34;5114850;28;20062;-9
2021/10/10 06:56:37;;;;;;;2.28;2.08;;;21.90;46.00;;;25.52;31.50;102576.50;5115133;28;20051;-9
2021/10/10 06:59:03;;;;;;;2.00;1.80;;;21.90;46.00;;;25.51;31.31;102572.13;5114500;28;20039;-9
2021/10/10 07:01:30;;;;;;;2.30;2.10;;;21.80;45.90;;;25.55;31.48;102571.94;5114500;28;20092;-9
2021/10/10 07:03:56;;;;;;;2.42;2.20;;;21.90;45.80;;;25.58;31.33;102574.47;5114425;28;20051;-9
2021/10/10 07:06:22;;;;;;;2.10;1.90;;;22.00;45.80;;;25.59;31.35;102566.31;5114408;28;20051;-9
2021/10/10 07:08:48;;;;;;;2.30;2.10;;;22.00;45.70;;;25.64;31.29;102568.75;5114370;28;20047;-9
2021/10/10 07:11:14;;;;;;;2.70;2.50;;;22.00;45.60;;;25.67;31.21;102566.75;5114358;28;20077;-9
2021/10/10 07:13:40;;;;;;;2.53;2.30;;;22.10;45.60;;;25.69;31.23;102572.03;5114624;28;20051;-9
2021/10/10 07:16:05;;;;;;;2.45;2.03;;;22.00;45.60;;;25.67;31.14;102569.44;5114224;28;20101;-9
2021/10/10 07:18:42;;;;;;;2.65;2.30;;;22.00;45.70;;;25.70;30.96;102571.09;5114156;28;20052;-9
2021/10/10 07:21:26;;;;;;;2.38;2.15;;;22.00;45.70;;;25.71;30.99;102580.88;5114093;28;20396;-9
2021/10/10 07:26:19;;;;;;;2.33;2.10;;;22.00;45.70;;;25.72;31.14;102569.19;5114411;28;20055;-9
2021/10/10 07:28:45;;;;;;;2.67;2.33;;;22.00;45.60;;;25.75;30.99;102576.22;5113926;28;20047;-10
2021/10/10 07:31:11;;;;;;;2.70;2.20;;;22.00;45.50;;;25.74;31.12;102564.59;5114030;28;20047;-9
2021/10/10 07:33:36;;;;;;;2.75;2.10;;;22.10;45.60;;;25.74;30.92;102569.97;5113913;28;20047;-9
2021/10/10 07:36:03;;;;;;;2.22;2.00;;;22.10;45.60;;;25.75;31.04;102563.66;5113814;28;20096;-9
2021/10/10 07:38:29;;;;;;;2.65;2.45;;;22.00;45.60;;;25.73;30.95;102573.63;5113816;28;20044;-9
2021/10/10 07:40:54;;;;;;;2.55;2.35;;;22.00;45.80;;;25.75;30.88;102570.84;5113821;28;20126;-9
2021/10/10 07:43:21;;;;;;;2.42;2.22;;;22.00;45.80;;;25.75;30.94;102562.81;5113687;28;20079;-9
2021/10/10 07:45:47;;;;;;;2.20;2.00;;;22.00;45.70;;;25.75;30.87;102568.19;5113810;28;20043;-9
2021/10/10 07:48:13;;;;;;;2.45;2.25;;;21.90;45.70;;;25.72;30.79;102560.31;5113701;28;20475;-9
2021/10/10 07:50:39;;;;;;;2.65;2.45;;;21.90;45.80;;;25.70;30.83;102552.34;5113558;28;20054;-9
2021/10/10 07:53:06;;;;;;;2.10;1.90;;;21.90;45.80;;;25.68;30.80;102546.22;5114246;28;20043;-9
2021/10/10 07:55:31;;;;;;;2.58;2.15;;;21.90;45.70;;;25.70;30.72;102547.00;5113478;28;20056;-9
2021/10/10 07:57:58;;;;;;;2.58;2.38;;;21.90;45.80;;;25.69;30.90;102546.13;5113647;28;20441;-9
2021/10/10 08:00:24;;;;;;;2.40;2.20;;;21.90;45.80;;;25.66;30.92;102546.31;5113102;28;20051;-9
2021/10/10 08:03:00;;;;;;;2.45;2.20;;;21.90;45.80;;;25.65;30.92;102555.28;5113676;28;20096;-9
2021/10/10 08:05:28;;;;;;;2.38;2.17;;;21.90;45.90;;;25.63;30.88;102553.66;5113790;28;20047;-9
2021/10/10 08:07:56;;;;;;;3.08;2.47;;;21.90;45.80;;;25.64;30.89;102558.03;5111755;28;20044;-9
2021/10/10 08:10:23;;;;;;;2.47;2.28;;;21.90;45.90;;;25.60;30.65;102548.47;5113622;28;20134;-9
2021/10/10 08:12:49;;;;;;;2.42;2.22;;;21.80;45.90;;;25.58;30.89;102548.53;5113303;28;20051;-9
2021/10/10 08:15:15;;;;;;;2.85;2.17;;;21.80;46.00;;;25.58;30.85;102553.91;5113256;28;20051;-9
2021/10/10 08:17:44;;;;;;;2.58;2.38;;;21.80;46.10;;;25.55;31.08;102553.19;5113729;28;20172;-9
2021/10/10 08:20:11;;;;;;;2.35;2.15;;;21.80;46.10;;;25.52;30.96;102549.72;5113403;28;20083;-9
2021/10/10 08:22:38;;;;;;;2.53;2.15;;;21.70;46.20;;;25.53;30.99;102555.97;5113520;28;20400;-9
2021/10/10 08:25:11;;;;;;;2.53;2.33;;;21.70;46.20;;;25.48;30.91;102552.69;5113549;28;20442;-9
2021/10/10 08:27:42;;;;;;;2.63;2.25;;;21.60;46.40;;;25.49;30.87;102559.75;5112919;28;20051;-9
2021/10/10 08:30:19;;;;;;;3.22;2.30;;;21.60;46.40;;;25.46;31.18;102563.47;5112719;28;20043;-9
2021/10/10 08:32:46;;;;;;;2.70;2.50;;;21.50;46.50;;;25.49;31.07;102560.63;5113196;28;20093;-9
2021/10/10 08:35:14;;;;;;;2.80;2.50;;;21.50;46.70;;;25.46;31.08;102560.78;5112977;28;20048;-9
2021/10/10 08:37:42;;;;;;;2.30;2.10;;;21.40;46.90;;;25.46;31.03;102563.47;5112978;28;20051;-9
2021/10/10 08:40:10;;;;;;;1.92;1.73;;;21.40;46.90;;;25.44;31.01;102561.81;5112697;28;20067;-9
2021/10/10 08:42:39;;;;;;;2.70;2.25;;;21.30;47.10;;;25.42;31.18;102558.34;5112780;28;20125;-9
2021/10/10 08:45:14;;;;;;;2.67;2.47;;;21.30;47.00;;;25.40;31.19;102563.78;5112903;28;20051;-9
2021/10/10 08:47:43;;;;;;;2.30;2.10;;;21.30;47.10;;;25.35;31.02;102552.47;5095807;28;20047;-9
2021/10/10 08:50:22;;;;;;;2.15;1.95;;;21.20;47.20;;;25.35;31.18;102551.63;5113197;28;20131;-9
2021/10/10 08:52:52;;;;;;;3.40;2.40;;;21.20;47.20;;;25.35;31.25;102543.59;5112959;28;20054;-9
2021/10/10 08:55:19;;;;;;;2.67;2.30;;;21.30;47.20;;;25.31;31.32;102549.09;5112697;28;20601;-9
2021/10/10 08:57:47;;;;;;;2.42;2.22;;;21.20;47.20;;;25.27;31.20;102539.47;5112599;28;20051;-9
2021/10/10 09:00:17;;;;;;;2.30;2.10;;;21.20;47.20;;;25.25;31.28;102540.50;5112814;28;20039;-9
2021/10/10 09:02:47;;;;;;;2.40;2.20;;;21.20;47.20;;;25.29;31.25;102547.44;5077668;28;20429;-9
2021/10/10 09:05:15;;;;;;;2.55;2.30;;;21.20;47.20;;;25.27;31.41;102549.34;5112596;28;20126;-9
2021/10/10 09:07:44;;;;;;;2.33;2.13;;;21.20;47.20;;;25.23;31.39;102537.03;5112440;28;20044;-9
2021/10/10 09:10:17;;;;;;;2.60;2.40;;;21.20;47.20;;;25.25;31.41;102546.72;5112645;28;20086;-9
2021/10/10 09:12:44;;;;;;;2.70;2.13;;;21.20;47.20;;;25.20;31.30;102539.88;5113835;28;20062;-9
2021/10/10 09:15:15;;;;;;;2.45;2.00;;;21.20;47.20;;;25.23;31.49;102545.94;5116008;28;20078;-9
2021/10/10 09:17:55;;;;;;;3.23;2.70;;;21.20;47.20;;;25.23;31.38;102539.72;5116038;28;20415;-9
2021/10/10 09:20:34;;;;;;;2.05;1.75;;;21.20;47.20;;;25.25;31.15;102538.69;5116009;28;20277;-9
2021/10/10 09:23:02;;;;;;;2.75;2.50;;;21.30;47.20;;;25.25;31.32;102543.19;5116071;28;20052;-9
2021/10/10 09:25:28;;;;;;;2.70;2.50;;;21.30;47.20;;;25.22;31.42;102538.84;5116031;28;20043;-9
2021/10/10 09:28:00;;;;;;;2.63;2.33;;;21.30;47.10;;;25.23;31.33;102542.41;5116179;28;20079;-9
2021/10/10 09:30:26;;;;;;;2.65;2.40;;;21.30;47.20;;;25.20;31.34;102526.50;5115953;28;20048;-9
2021/10/10 09:32:56;;;;;;;2.78;2.42;;;21.20;47.20;;;25.21;31.35;102533.56;5116289;28;20043;-9
2021/10/10 09:35:30;;;;;;;2.38;2.17;;;21.20;47.20;;;25.20;31.32;102527.34;5115827;28;20047;-9
2021/10/10 09:38:20;;;;;;;2.40;2.20;;;21.30;47.70;;;25.22;31.42;102530.81;5115713;28;20055;-9
2021/10/10 09:40:56;;;;;;;2.33;2.13;;;21.20;47.20;;;25.25;31.38;102529.78;5116152;28;20131;-9
2021/10/10 09:43:22;;;;;;;2.90;2.30;;;21.30;47.10;;;25.23;31.28;102526.34;5113930;28;20487;-9
2021/10/10 09:48:15;;;;;;;2.40;2.20;;;21.30;47.10;;;25.24;31.33;102517.34;5115630;28;20499;-9
2021/10/10 09:50:48;;;;;;;3.70;2.63;;;21.30;47.10;;;25.20;31.51;102513.13;5115607;28;20048;-9
2021/10/10 09:53:22;;;;;;;2.70;2.50;;;21.20;47.20;;;25.22;31.21;102511.22;5115633;28;20043;-9
2021/10/10 09:56:07;;;;;;;2.90;2.58;;;21.20;47.10;;;25.18;31.38;102504.31;5115703;28;20108;-9
2021/10/10 09:58:41;;;;;;;2.25;2.05;;;21.20;47.20;;;25.15;31.42;102508.00;5115875;28;20104;-9
2021/10/10 10:01:14;;;;;;;2.53;2.33;;;21.30;47.10;;;25.15;31.32;102506.19;5115414;28;20043;-9
2021/10/10 10:04:06;;;;;;;3.15;2.40;;;21.20;47.20;;;25.15;31.37;102498.16;5115740;28;20048;-9
2021/10/10 10:06:38;;;;;;;2.53;2.28;;;21.10;47.30;;;25.12;31.46;102502.81;5115225;28;20048;-9
2021/10/10 10:09:11;;;;;;;2.45;2.25;;;21.10;47.50;;;25.09;31.49;102495.81;5115376;28;20039;-9
2021/10/10 10:11:43;;;;;;;3.47;2.70;;;21.10;47.50;;;25.12;31.59;102502.81;5115384;28;20040;-9
2021/10/10 10:14:15;;;;;;;2.42;2.17;;;21.20;47.20;;;25.10;31.53;102502.03;5115137;28;20044;-9
2021/10/10 10:16:45;;;;;;;2.42;2.22;;;21.20;47.20;;;25.11;31.50;102506.44;5115097;28;20048;-9
2021/10/10 10:19:20;;;;;;;2.45;2.25;;;21.10;47.30;;;25.11;31.62;102509.13;5115148;28;20047;-9
2021/10/10 10:21:49;;;;;;;2.42;2.22;;;21.10;47.30;;;25.08;31.43;102496.75;5115449;28;20052;-9
2021/10/10 10:24:17;;;;;;;2.53;2.33;;;21.10;47.30;;;25.10;31.40;102485.97;5114859;28;20054;-9
2021/10/10 10:26:43;;;;;;;2.55;2.33;;;21.10;47.30;;;25.09;31.58;102482.44;5097129;28;20116;-9
2021/10/10 10:29:18;;;;;;;2.50;2.30;;;21.10;47.30;;;25.04;31.56;102478.25;5114824;28;20158;-9